createdAt,value
2022-08-09T00:00:00.505Z,12.70
2022-08-09T00:02:31.610Z,12.64
2022-08-09T00:05:03.604Z,12.61
2022-08-09T00:07:45.378Z,12.57
2022-08-09T00:10:17.766Z,12.53
2022-08-09T00:12:46.299Z,12.48
2022-08-09T00:15:14.831Z,12.40
2022-08-09T00:18:10.395Z,12.39
2022-08-09T00:20:28.077Z,12.35
2022-08-09T00:22:58.190Z,12.26
2022-08-09T00:25:36.545Z,12.22
2022-08-09T00:28:05.897Z,12.23
2022-08-09T00:30:32.533Z,12.20
2022-08-09T00:33:00.424Z,12.16
2022-08-09T00:35:27.478Z,12.12
2022-08-09T00:37:56.380Z,12.10
2022-08-09T00:40:23.002Z,12.03
2022-08-09T00:44:14.881Z,12.00
2022-08-09T00:45:50.410Z,11.96
2022-08-09T00:48:20.656Z,11.93
2022-08-09T00:50:52.257Z,11.89
2022-08-09T00:53:23.991Z,11.85
2022-08-09T00:56:05.425Z,11.86
2022-08-09T00:58:36.416Z,11.78
2022-08-09T01:01:16.194Z,11.74
2022-08-09T01:03:50.461Z,11.74
2022-08-09T01:06:35.222Z,11.68
2022-08-09T01:09:24.494Z,11.62
2022-08-09T01:12:12.794Z,11.58
2022-08-09T01:14:44.910Z,11.54
2022-08-09T01:17:22.098Z,11.47
2022-08-09T01:20:02.473Z,11.48
2022-08-09T01:24:01.808Z,11.46
2022-08-09T01:26:18.073Z,11.41
2022-08-09T01:28:50.271Z,11.38
2022-08-09T01:31:23.358Z,11.35
2022-08-09T01:34:10.565Z,11.30
2022-08-09T01:36:40.793Z,11.27
2022-08-09T01:39:08.500Z,11.23
2022-08-09T01:41:37.335Z,11.18
2022-08-09T01:44:23.729Z,11.17
2022-08-09T01:46:52.990Z,11.12
2022-08-09T01:49:24.368Z,11.09
2022-08-09T01:51:54.796Z,11.07
2022-08-09T01:54:25.494Z,11.05
2022-08-09T01:56:56.022Z,11.03
2022-08-09T01:59:25.457Z,10.98
2022-08-09T02:02:01.425Z,10.97
2022-08-09T02:04:31.545Z,10.98
2022-08-09T02:07:02.713Z,10.98
2022-08-09T02:09:42.611Z,10.96
2022-08-09T02:12:18.033Z,10.91
2022-08-09T02:14:52.099Z,10.88
2022-08-09T02:17:59.535Z,10.87
2022-08-09T02:20:08.911Z,10.79
2022-08-09T02:22:38.807Z,10.76
2022-08-09T02:25:15.302Z,10.72
2022-08-09T02:28:00.489Z,10.67
2022-08-09T02:30:39.121Z,10.67
2022-08-09T02:33:14.435Z,10.59
2022-08-09T02:36:02.632Z,10.56
2022-08-09T02:38:34.901Z,10.54
2022-08-09T02:41:07.551Z,10.51
2022-08-09T02:43:53.708Z,10.49
2022-08-09T02:46:24.231Z,10.47
2022-08-09T02:48:52.835Z,10.44
2022-08-09T02:51:22.812Z,10.43
2022-08-09T02:54:01.183Z,10.43
2022-08-09T02:56:30.278Z,10.40
2022-08-09T02:58:59.302Z,10.37
2022-08-09T03:01:42.461Z,10.36
2022-08-09T03:04:19.350Z,10.30
2022-08-09T03:06:48.935Z,10.30
2022-08-09T03:09:17.292Z,10.30
2022-08-09T03:12:10.460Z,10.24
2022-08-09T03:14:32.256Z,10.21
2022-08-09T03:17:01.716Z,10.15
2022-08-09T03:19:52.449Z,10.11
2022-08-09T03:22:25.080Z,10.06
2022-08-09T03:25:06.670Z,9.98
2022-08-09T03:27:45.406Z,10.00
2022-08-09T03:30:13.965Z,9.97
2022-08-09T03:32:43.138Z,9.94
2022-08-09T03:35:15.047Z,9.91
2022-08-09T03:37:59.718Z,9.88
2022-08-09T03:40:30.921Z,9.88
2022-08-09T03:42:57.921Z,9.87
2022-08-09T03:46:05.422Z,9.84
2022-08-09T03:48:19.093Z,9.81
2022-08-09T03:50:58.022Z,9.79
2022-08-09T03:53:32.377Z,9.79
2022-08-09T03:56:04.824Z,9.78
2022-08-09T03:58:32.320Z,9.75
2022-08-09T04:00:59.709Z,9.74
2022-08-09T04:03:45.952Z,9.74
2022-08-09T04:06:17.110Z,9.74
2022-08-09T04:08:46.726Z,9.73
2022-08-09T04:11:13.544Z,9.73
2022-08-09T04:14:37.416Z,9.71
2022-08-09T04:16:27.301Z,9.68
2022-08-09T04:18:55.252Z,9.65
2022-08-09T04:21:23.977Z,9.69
2022-08-09T04:23:54.510Z,9.70
2022-08-09T04:26:24.273Z,9.70
2022-08-09T04:28:51.808Z,9.71
2022-08-09T04:31:20.604Z,9.72
2022-08-09T04:33:56.795Z,9.74
2022-08-09T04:36:29.474Z,9.74
2022-08-09T04:38:57.509Z,9.76
2022-08-09T04:41:32.416Z,9.75
2022-08-09T04:44:06.491Z,9.75
2022-08-09T04:46:57.565Z,9.77
2022-08-09T04:49:40.186Z,9.78
2022-08-09T04:52:10.523Z,9.81
2022-08-09T04:54:37.136Z,9.85
2022-08-09T04:57:04.346Z,9.86
2022-08-09T04:59:31.084Z,9.91
2022-08-09T05:01:57.712Z,9.97
2022-08-09T05:04:30.745Z,10.01
2022-08-09T05:06:58.113Z,10.09
2022-08-09T05:09:41.841Z,10.16
2022-08-09T05:12:09.481Z,10.22
2022-08-09T05:14:37.778Z,10.28
2022-08-09T05:18:36.662Z,10.34
2022-08-09T05:19:56.872Z,10.42
2022-08-09T05:22:28.259Z,10.48
2022-08-09T05:25:03.288Z,10.59
2022-08-09T05:27:31.115Z,10.69
2022-08-09T05:29:57.890Z,10.75
2022-08-09T05:32:26.103Z,10.86
2022-08-09T05:34:56.876Z,10.96
2022-08-09T05:37:23.463Z,11.07
2022-08-09T05:39:51.926Z,11.16
2022-08-09T05:42:21.330Z,11.25
2022-08-09T05:44:57.950Z,11.38
2022-08-09T05:47:27.085Z,11.49
2022-08-09T05:50:35.163Z,11.65
2022-08-09T05:52:43.844Z,11.81
2022-08-09T05:55:20.536Z,11.93
2022-08-09T05:57:51.280Z,12.06
2022-08-09T06:00:25.134Z,12.17
2022-08-09T06:02:54.605Z,12.30
2022-08-09T06:05:49.936Z,12.44
2022-08-09T06:08:10.846Z,12.61
2022-08-09T06:10:37.880Z,12.78
2022-08-09T06:13:18.805Z,12.92
2022-08-09T06:15:47.720Z,13.11
2022-08-09T06:18:18.673Z,13.31
2022-08-09T06:20:49.981Z,13.47
2022-08-09T06:23:21.564Z,13.65
2022-08-09T06:25:49.302Z,13.81
2022-08-09T06:28:27.393Z,14.03
2022-08-09T06:30:58.624Z,14.23
2022-08-09T06:33:39.860Z,14.39
2022-08-09T06:36:08.546Z,14.60
2022-08-09T06:38:37.385Z,14.77
2022-08-09T06:41:04.620Z,14.96
2022-08-09T06:43:41.489Z,15.15
2022-08-09T06:46:10.983Z,15.35
2022-08-09T06:48:43.050Z,15.51
2022-08-09T06:51:10.174Z,15.70
2022-08-09T06:53:38.701Z,15.95
2022-08-09T06:56:05.914Z,16.11
2022-08-09T07:00:48.829Z,16.32
2022-08-09T07:01:21.436Z,16.57
2022-08-09T07:03:53.173Z,16.76
2022-08-09T07:06:21.331Z,16.93
2022-08-09T07:08:52.233Z,17.11
2022-08-09T07:11:25.362Z,17.28
2022-08-09T07:14:05.137Z,17.51
2022-08-09T07:16:42.754Z,17.77
2022-08-09T07:19:23.141Z,18.03
2022-08-09T07:21:57.259Z,18.15
2022-08-09T07:24:32.642Z,18.23
2022-08-09T07:27:11.117Z,18.46
2022-08-09T07:29:56.993Z,18.60
2022-08-09T07:32:33.208Z,18.86
2022-08-09T07:35:02.682Z,18.92
2022-08-09T07:37:44.046Z,19.03
2022-08-09T07:40:13.733Z,19.26
2022-08-09T07:42:52.438Z,19.36
2022-08-09T07:45:23.613Z,19.75
2022-08-09T07:48:08.302Z,20.05
2022-08-09T07:51:10.051Z,20.20
2022-08-09T07:54:04.095Z,20.51
2022-08-09T07:56:28.092Z,20.84
2022-08-09T07:58:59.211Z,21.18
2022-08-09T08:01:33.062Z,21.45
2022-08-09T08:04:03.215Z,21.63
2022-08-09T08:06:32.009Z,21.90
2022-08-09T08:09:03.050Z,22.11
2022-08-09T08:12:24.746Z,22.29
2022-08-09T08:14:18.029Z,22.37
2022-08-09T08:16:51.045Z,22.71
2022-08-09T08:19:31.210Z,22.88
2022-08-09T08:21:58.053Z,23.09
2022-08-09T08:24:34.193Z,23.30
2022-08-09T08:27:17.284Z,23.51
2022-08-09T08:29:49.958Z,23.66
2022-08-09T08:32:18.913Z,23.95
2022-08-09T08:34:55.430Z,24.17
2022-08-09T08:37:26.104Z,24.26
2022-08-09T08:40:10.132Z,24.48
2022-08-09T08:42:38.052Z,24.76
2022-08-09T08:45:11.924Z,24.96
2022-08-09T08:47:42.886Z,24.95
2022-08-09T08:50:18.192Z,25.14
2022-08-09T08:52:59.026Z,25.29
2022-08-09T08:55:27.180Z,25.41
2022-08-09T08:57:57.317Z,25.55
2022-08-09T09:00:27.942Z,25.89
2022-08-09T09:03:04.501Z,26.21
2022-08-09T09:06:01.145Z,26.26
2022-08-09T09:08:30.157Z,26.62
2022-08-09T09:11:01.320Z,26.72
2022-08-09T09:13:34.603Z,26.86
2022-08-09T09:16:09.210Z,27.20
2022-08-09T09:18:36.373Z,27.39
2022-08-09T09:21:06.660Z,27.63
2022-08-09T09:23:41.111Z,27.21
2022-08-09T09:26:16.738Z,27.56
2022-08-09T09:29:04.598Z,27.72
2022-08-09T09:32:06.203Z,28.20
2022-08-09T09:34:19.499Z,28.46
2022-08-09T09:36:54.199Z,28.60
2022-08-09T09:39:22.687Z,28.97
2022-08-09T09:41:51.060Z,28.88
2022-08-09T09:44:27.577Z,29.23
2022-08-09T09:47:05.016Z,29.30
2022-08-09T09:50:07.410Z,29.24
2022-08-09T09:52:36.968Z,29.46
2022-08-09T09:55:07.894Z,29.67
2022-08-09T09:58:03.629Z,29.58
2022-08-09T10:00:31.894Z,29.85
2022-08-09T10:03:00.421Z,30.15
2022-08-09T10:06:00.698Z,30.22
2022-08-09T10:08:28.411Z,30.76
2022-08-09T10:10:55.616Z,30.90
2022-08-09T10:13:24.893Z,30.63
2022-08-09T10:16:56.869Z,30.60
2022-08-09T10:18:59.804Z,30.53
2022-08-09T10:21:27.230Z,30.71
2022-08-09T10:23:56.658Z,30.91
2022-08-09T10:26:24.559Z,30.98
2022-08-09T10:29:21.049Z,30.86
2022-08-09T10:32:35.624Z,31.48
2022-08-09T10:34:32.957Z,30.69
2022-08-09T10:37:02.307Z,30.80
2022-08-09T10:39:40.531Z,31.27
2022-08-09T10:42:15.774Z,31.73
2022-08-09T10:44:48.547Z,31.97
2022-08-09T10:48:17.337Z,32.22
2022-08-09T10:50:42.217Z,32.13
2022-08-09T10:53:19.867Z,31.73
2022-08-09T10:56:14.777Z,32.08
2022-08-09T10:58:50.255Z,32.37
2022-08-09T11:03:15.113Z,32.75
2022-08-09T11:04:31.275Z,32.58
2022-08-09T11:07:57.615Z,32.94
2022-08-09T11:10:17.363Z,33.37
2022-08-09T11:13:13.625Z,33.55
2022-08-09T11:16:35.230Z,33.14
2022-08-09T11:19:09.819Z,33.38
2022-08-09T11:22:05.132Z,33.33
2022-08-09T11:25:05.384Z,33.28
2022-08-09T11:28:08.070Z,32.36
2022-08-09T11:30:34.643Z,30.40
2022-08-09T11:33:05.421Z,29.16
2022-08-09T11:35:49.048Z,30.02
2022-08-09T11:38:19.797Z,30.93
2022-08-09T11:40:50.267Z,31.64
2022-08-09T11:43:41.599Z,32.23
2022-08-09T11:46:09.699Z,32.59
2022-08-09T11:48:48.114Z,32.86
2022-08-09T11:52:54.048Z,33.51
2022-08-09T11:54:21.387Z,32.50
2022-08-09T11:56:54.979Z,33.01
2022-08-09T11:59:33.030Z,33.04
2022-08-09T12:02:34.697Z,33.16
2022-08-09T12:04:58.244Z,33.54
2022-08-09T12:07:28.190Z,34.09
2022-08-09T12:10:02.338Z,34.67
2022-08-09T12:12:31.796Z,35.18
2022-08-09T12:15:08.354Z,35.49
2022-08-09T12:17:43.008Z,35.49
2022-08-09T12:20:16.515Z,35.56
2022-08-09T12:22:51.987Z,35.00
2022-08-09T12:25:36.239Z,34.83
2022-08-09T12:29:14.956Z,35.10
2022-08-09T12:30:57.624Z,35.78
2022-08-09T12:33:35.315Z,35.91
2022-08-09T12:36:27.396Z,35.57
2022-08-09T12:38:58.363Z,35.23
2022-08-09T12:41:27.289Z,34.86
2022-08-09T12:44:04.853Z,35.59
2022-08-09T12:46:36.048Z,35.02
2022-08-09T12:49:04.539Z,33.63
2022-08-09T12:52:00.839Z,32.47
2022-08-09T12:54:18.131Z,31.73
2022-08-09T12:56:51.437Z,32.27
2022-08-09T12:59:22.316Z,33.52
2022-08-09T13:02:02.399Z,34.42
2022-08-09T13:04:36.867Z,34.39
2022-08-09T13:07:13.464Z,35.17
2022-08-09T13:09:41.033Z,35.29
2022-08-09T13:12:10.342Z,35.80
2022-08-09T13:14:45.427Z,35.51
2022-08-09T13:17:25.680Z,33.91
2022-08-09T13:20:07.327Z,33.02
2022-08-09T13:23:06.154Z,32.92
2022-08-09T13:25:42.133Z,33.55
2022-08-09T13:28:11.450Z,33.15
2022-08-09T13:32:13.483Z,32.46
2022-08-09T13:33:53.015Z,31.70
2022-08-09T13:36:24.314Z,31.41
2022-08-09T13:41:20.879Z,31.23
2022-08-09T13:42:02.078Z,30.81
2022-08-09T13:44:29.233Z,31.52
2022-08-09T13:47:29.288Z,32.53
2022-08-09T13:49:57.314Z,32.99
2022-08-09T13:52:26.542Z,33.85
2022-08-09T13:55:00.698Z,34.72
2022-08-09T13:57:36.890Z,34.67
2022-08-09T14:00:10.633Z,34.74
2022-08-09T14:02:42.106Z,34.68
2022-08-09T14:05:10.621Z,35.24
2022-08-09T14:07:42.119Z,35.90
2022-08-09T14:10:17.268Z,36.33
2022-08-09T14:12:55.589Z,36.69
2022-08-09T14:16:10.437Z,36.71
2022-08-09T14:18:19.846Z,36.20
2022-08-09T14:20:56.414Z,34.11
2022-08-09T14:23:39.909Z,32.83
2022-08-09T14:26:07.624Z,32.15
2022-08-09T14:28:36.901Z,32.07
2022-08-09T14:31:03.544Z,33.06
2022-08-09T14:33:30.671Z,33.82
2022-08-09T14:36:20.668Z,33.80
2022-08-09T14:38:53.016Z,34.64
2022-08-09T14:41:40.428Z,35.45
2022-08-09T14:44:06.570Z,36.07
2022-08-09T14:46:55.971Z,36.21
2022-08-09T14:49:23.488Z,35.81
2022-08-09T14:51:50.446Z,36.27
2022-08-09T14:54:22.237Z,36.45
2022-08-09T14:56:58.711Z,36.91
2022-08-09T14:59:26.971Z,36.90
2022-08-09T15:01:54.110Z,37.29
2022-08-09T15:04:23.449Z,37.74
2022-08-09T15:06:50.470Z,38.02
2022-08-09T15:10:03.201Z,37.01
2022-08-09T15:12:08.162Z,35.08
2022-08-09T15:14:38.762Z,33.63
2022-08-09T15:17:05.802Z,32.94
2022-08-09T15:19:36.150Z,32.53
2022-08-09T15:22:03.285Z,32.00
2022-08-09T15:24:31.367Z,32.27
2022-08-09T15:26:57.990Z,33.30
2022-08-09T15:30:55.610Z,33.94
2022-08-09T15:32:29.040Z,34.38
2022-08-09T15:34:57.426Z,34.17
2022-08-09T15:37:24.014Z,34.99
2022-08-09T15:39:54.645Z,35.40
2022-08-09T15:42:22.083Z,35.76
2022-08-09T15:44:48.951Z,36.02
2022-08-09T15:47:22.534Z,36.59
2022-08-09T15:50:04.149Z,36.80
2022-08-09T15:52:33.017Z,36.22
2022-08-09T15:55:01.873Z,35.72
2022-08-09T15:57:34.986Z,35.57
2022-08-09T16:00:14.188Z,34.98
2022-08-09T16:02:42.760Z,34.48
2022-08-09T16:05:15.539Z,33.46
2022-08-09T16:07:45.939Z,32.83
2022-08-09T16:10:17.352Z,32.15
2022-08-09T16:13:01.626Z,32.14
2022-08-09T16:16:10.004Z,31.93
2022-08-09T16:18:16.566Z,31.62
2022-08-09T16:20:43.401Z,31.08
2022-08-09T16:23:13.375Z,31.08
2022-08-09T16:25:42.846Z,30.97
2022-08-09T16:28:16.550Z,30.42
2022-08-09T16:30:44.730Z,29.92
2022-08-09T16:33:20.758Z,29.78
2022-08-09T16:35:55.823Z,29.62
2022-08-09T16:38:24.650Z,29.45
2022-08-09T16:40:53.305Z,29.27
2022-08-09T16:43:20.870Z,29.18
2022-08-09T16:45:48.119Z,29.16
2022-08-09T16:48:40.829Z,29.14
2022-08-09T16:51:08.009Z,29.70
2022-08-09T16:53:35.219Z,30.46
2022-08-09T16:56:10.101Z,30.30
2022-08-09T16:58:39.754Z,29.98
2022-08-09T17:01:16.897Z,29.71
2022-08-09T17:03:46.194Z,30.01
2022-08-09T17:06:29.227Z,30.42
2022-08-09T17:09:11.738Z,30.70
2022-08-09T17:11:51.242Z,31.12
2022-08-09T17:14:28.004Z,31.27
2022-08-09T17:16:59.697Z,31.25
2022-08-09T17:19:27.275Z,30.99
2022-08-09T17:22:13.529Z,30.92
2022-08-09T17:24:41.319Z,30.55
2022-08-09T17:27:15.787Z,30.67
2022-08-09T17:29:45.610Z,30.32
2022-08-09T17:32:15.637Z,29.96
2022-08-09T17:35:04.344Z,29.71
2022-08-09T17:37:29.672Z,29.22
2022-08-09T17:39:56.589Z,28.91
2022-08-09T17:42:55.269Z,28.59
2022-08-09T17:45:15.957Z,28.32
2022-08-09T17:47:55.492Z,28.05
2022-08-09T17:50:31.592Z,27.86
2022-08-09T17:53:04.676Z,27.74
2022-08-09T17:55:48.596Z,27.49
2022-08-09T17:58:18.340Z,27.29
2022-08-09T18:00:48.155Z,27.14
2022-08-09T18:03:17.894Z,27.01
2022-08-09T18:05:45.186Z,26.88
2022-08-09T18:08:18.416Z,26.70
2022-08-09T18:11:02.159Z,26.54
2022-08-09T18:13:38.977Z,26.43
2022-08-09T18:16:09.149Z,26.24
2022-08-09T18:18:43.129Z,26.06
2022-08-09T18:21:19.106Z,25.91
2022-08-09T18:24:09.544Z,25.61
2022-08-09T18:26:37.989Z,25.43
2022-08-09T18:30:34.899Z,25.21
2022-08-09T18:31:56.377Z,25.03
2022-08-09T18:34:23.928Z,24.96
2022-08-09T18:36:50.982Z,24.76
2022-08-09T18:39:20.285Z,24.62
2022-08-09T18:41:52.158Z,24.46
2022-08-09T18:44:25.535Z,24.33
2022-08-09T18:47:07.464Z,24.14
2022-08-09T18:49:41.637Z,23.95
2022-08-09T18:52:13.457Z,23.88
2022-08-09T18:54:49.834Z,23.71
2022-08-09T18:57:22.302Z,23.60
2022-08-09T18:59:57.366Z,23.45
2022-08-09T19:02:32.404Z,23.21
2022-08-09T19:05:03.918Z,23.01
2022-08-09T19:07:59.173Z,22.87
2022-08-09T19:10:29.165Z,22.77
2022-08-09T19:13:05.174Z,22.63
2022-08-09T19:15:49.306Z,22.53
2022-08-09T19:18:33.309Z,22.46
2022-08-09T19:21:03.464Z,22.34
2022-08-09T19:24:31.822Z,22.20
2022-08-09T19:26:19.373Z,22.12
2022-08-09T19:28:56.098Z,22.05
2022-08-09T19:31:30.246Z,21.94
2022-08-09T19:33:57.297Z,21.90
2022-08-09T19:36:30.853Z,21.83
2022-08-09T19:38:59.459Z,21.75
2022-08-09T19:41:33.361Z,21.68
2022-08-09T19:44:03.328Z,21.61
2022-08-09T19:46:34.220Z,21.56
2022-08-09T19:50:09.375Z,21.52
2022-08-09T19:52:03.783Z,21.44
2022-08-09T19:54:30.819Z,21.35
2022-08-09T19:56:57.731Z,21.29
2022-08-09T19:59:59.763Z,21.19
2022-08-09T20:02:14.935Z,21.09
2022-08-09T20:04:59.339Z,20.99
2022-08-09T20:07:26.212Z,20.92
2022-08-09T20:10:17.564Z,20.91
2022-08-09T20:12:45.881Z,20.88
2022-08-09T20:16:35.537Z,20.78
2022-08-09T20:18:01.007Z,20.72
2022-08-09T20:20:27.848Z,20.62
2022-08-09T20:22:56.309Z,20.59
2022-08-09T20:25:23.339Z,20.55
2022-08-09T20:27:50.031Z,20.48
2022-08-09T20:30:17.890Z,20.44
2022-08-09T20:32:48.608Z,20.37
2022-08-09T20:35:21.239Z,20.33
2022-08-09T20:38:22.043Z,20.28
2022-08-09T20:40:35.351Z,20.26
2022-08-09T20:43:18.223Z,20.21
2022-08-09T20:46:01.922Z,20.12
2022-08-09T20:48:37.012Z,20.05
2022-08-09T20:51:06.473Z,19.99
2022-08-09T20:53:37.768Z,19.92
2022-08-09T20:56:08.798Z,19.88
2022-08-09T20:58:35.913Z,19.84
2022-08-09T21:01:33.383Z,19.75
2022-08-09T21:04:08.414Z,19.63
2022-08-09T21:06:41.414Z,19.45
2022-08-09T21:09:11.709Z,19.35
2022-08-09T21:14:27.090Z,19.05
2022-08-09T21:16:57.567Z,18.88
2022-08-09T21:20:18.516Z,18.65
2022-08-09T21:22:38.019Z,18.44
2022-08-09T21:25:00.929Z,18.29
2022-08-09T21:27:50.982Z,18.17
2022-08-09T21:30:14.165Z,17.98
2022-08-09T21:32:45.422Z,17.85
2022-08-09T21:35:12.122Z,17.77
2022-08-09T21:37:47.030Z,17.70
2022-08-09T21:40:19.028Z,17.60
2022-08-09T21:42:57.574Z,17.51
2022-08-09T21:45:25.479Z,17.43
2022-08-09T21:47:52.140Z,17.30
2022-08-09T21:50:22.995Z,17.18
2022-08-09T21:53:01.918Z,17.04
2022-08-09T21:55:28.756Z,16.90
2022-08-09T21:57:58.810Z,16.84
2022-08-09T22:00:32.385Z,16.76
2022-08-09T22:03:01.658Z,16.64
2022-08-09T22:05:35.852Z,16.56
2022-08-09T22:08:13.618Z,16.50
2022-08-09T22:11:00.326Z,16.46
2022-08-09T22:13:34.671Z,16.42
2022-08-09T22:16:03.587Z,16.36
2022-08-09T22:18:32.823Z,16.30
2022-08-09T22:21:00.010Z,16.21
2022-08-09T22:23:35.595Z,16.09
2022-08-09T22:26:34.219Z,15.97
2022-08-09T22:29:06.971Z,15.84
2022-08-09T22:31:34.435Z,15.76
2022-08-09T22:34:01.073Z,15.65
2022-08-09T22:36:27.653Z,15.63
2022-08-09T22:38:55.606Z,15.50
2022-08-09T22:41:22.273Z,15.42
2022-08-09T22:44:02.730Z,15.34
2022-08-09T22:48:11.847Z,15.19
2022-08-09T22:49:17.936Z,15.15
2022-08-09T22:51:49.935Z,15.06
2022-08-09T22:54:26.994Z,14.99
2022-08-09T22:56:56.679Z,14.91
2022-08-09T22:59:57.189Z,14.79
2022-08-09T23:02:11.147Z,14.71
2022-08-09T23:04:42.372Z,14.70
2022-08-09T23:07:10.975Z,14.60
2022-08-09T23:09:39.771Z,14.55
2022-08-09T23:12:07.081Z,14.47
2022-08-09T23:14:41.532Z,14.38
2022-08-09T23:17:09.585Z,14.35
2022-08-09T23:20:00.625Z,14.31
2022-08-09T23:22:22.877Z,14.23
2022-08-09T23:24:50.899Z,14.21
2022-08-09T23:27:17.560Z,14.13
2022-08-09T23:29:44.357Z,14.08
2022-08-09T23:32:11.001Z,14.08
2022-08-09T23:34:37.898Z,14.04
2022-08-09T23:37:04.826Z,14.03
2022-08-09T23:39:31.542Z,13.98
2022-08-09T23:41:59.696Z,13.90
2022-08-09T23:44:26.284Z,13.89
2022-08-09T23:46:57.822Z,13.82
2022-08-09T23:49:25.184Z,13.77
2022-08-09T23:51:51.931Z,13.73
2022-08-09T23:54:19.721Z,13.68
2022-08-09T23:56:53.976Z,13.66
2022-08-09T23:59:24.356Z,13.64
